Malta Bend, Missouri
Current Conditions -  °F | °C
As of 3:58 AM on Sunday 25 Jan 2015 (Local Time) from KSZL Reporting Station
Broken Clouds Broken Clouds  
Wind Chill: 40°   Ceiling: 6000
Heat Index: 46°   Visibility: 10mi
Dew Point: 43°   Wind: 12mph
Humidity: 91%   Direction: 280°W
Pressure: 29.62"   Gusts: NA
Location:  39.19°N, 93.36°W
Report Text: KSZL 250958Z AUTO 28010KT 10SM FEW041 BKN060 08/06 A2962 RMK AO2 SLP034 T00750061 $
Loading
Personal Weather Stations






























Interactive Weather Map New forecast layout! Learn more

10-Day Weather Forecast

Advertisements
Track Severe Weather on mobile